»·PEaware :: N731SG KSMO-KSBA

N731SG :: KSMO-KSBA

FLIGHT INFORMATION

Flight Status: Arrived
Operator: Privately registered:
United States
More flights under this callsign
Pilot: Carl R. (23234)
Aircraft: BEECH AIRCRAFT BARON
(BE58)
More flights by this aircraft type
Origin: KSMO Santa Monica Mun
United States
Destination: KSBA Santa Barbara Mun
United States
More flights between these airports :: More routes between these airports
Route: +SMOP38
File this flight plan on PilotEdge
Remarks:
Altitude:
(Current/Filed)
6,000ft
Speed:
(Current/Filed)
150kts
Departed: 29-Jan-19 10:23 AM
Arrived: 29-Jan-19 10:59 AM
Distance/Time
Traveled:
73nm/0:36
Distance/Time
To Go:
Arrived

Flight Plot

Page will automatically refresh every two minutes.

Flight plan parsing failed; only flown route is shown


Map Options




Map Legend


Flown Route
Filed Route
Departure Airport
Arrival Airport
Navaid (VOR, NDB)
Fix

Horizontal Profiles

Position Reports

Time Latitude Longitude Heading Altitude Ground
Speed
29-Jan-19 09:55 34.015837 -118.449853 0 181ft 0kts
29-Jan-19 09:56 34.015837 -118.449853 315 181ft 0kts
29-Jan-19 09:57 34.015837 -118.449853 315 181ft 0kts
29-Jan-19 09:58 34.015837 -118.449853 315 181ft 0kts
29-Jan-19 09:59 34.015837 -118.449853 315 181ft 0kts
29-Jan-19 10:00 34.015838 -118.449853 315 181ft 0kts
29-Jan-19 10:01 34.015838 -118.449853 315 181ft 0kts
29-Jan-19 10:02 34.015838 -118.449853 315 181ft 0kts
29-Jan-19 10:03 34.015838 -118.449853 315 181ft 0kts
29-Jan-19 10:04 34.015838 -118.449853 315 181ft 0kts
29-Jan-19 10:05 34.015838 -118.449853 315 181ft 0kts
29-Jan-19 10:06 34.015838 -118.449853 315 181ft 0kts
29-Jan-19 10:07 34.015838 -118.449853 315 181ft 0kts
29-Jan-19 10:08 34.015838 -118.449853 315 181ft 0kts
29-Jan-19 10:09 34.015838 -118.449853 315 181ft 0kts
29-Jan-19 10:10 34.015838 -118.449853 315 181ft 0kts
29-Jan-19 10:11 34.015838 -118.449853 315 181ft 0kts
29-Jan-19 10:12 34.015838 -118.449853 315 181ft 0kts
29-Jan-19 10:13 34.015838 -118.449853 315 181ft 0kts
29-Jan-19 10:14 34.015838 -118.449853 315 181ft 0kts
29-Jan-19 10:15 34.015838 -118.449853 315 181ft 0kts
29-Jan-19 10:16 34.016538 -118.449382 46 181ft 13kts
29-Jan-19 10:17 34.018915 -118.446537 44 181ft 9kts
29-Jan-19 10:18 34.019954 -118.445420 359 181ft 0kts
29-Jan-19 10:19 34.019954 -118.445420 359 181ft 0kts
29-Jan-19 10:20 34.019954 -118.445420 359 181ft 0kts
29-Jan-19 10:21 34.019962 -118.445420 359 181ft 1kts
29-Jan-19 10:22 34.017095 -118.449811 224 181ft 90kts
29-Jan-19 10:23 33.995180 -118.475848 225 1258ft 112kts
29-Jan-19 10:24 33.985780 -118.510598 261 2533ft 113kts
29-Jan-19 10:25 33.980904 -118.548161 262 3625ft 124kts
29-Jan-19 10:26 33.974550 -118.600751 261 2892ft 148kts
29-Jan-19 10:27 33.981197 -118.643617 293 3571ft 137kts
29-Jan-19 10:28 33.994979 -118.684299 292 4948ft 131kts
29-Jan-19 10:29 34.008461 -118.725163 293 6009ft 142kts
29-Jan-19 10:30 34.024780 -118.774586 292 6003ft 164kts
29-Jan-19 10:31 34.041937 -118.826684 292 6004ft 168kts
29-Jan-19 10:32 34.059232 -118.879275 293 6005ft 168kts
29-Jan-19 10:33 34.076509 -118.931892 293 6014ft 168kts
29-Jan-19 10:34 34.093729 -118.984417 293 6014ft 168kts
29-Jan-19 10:35 34.110918 -119.036942 293 6013ft 168kts
29-Jan-19 10:36 34.131164 -119.087756 298 6009ft 167kts
29-Jan-19 10:37 34.152149 -119.137881 298 6005ft 167kts
29-Jan-19 10:38 34.173100 -119.187895 298 6002ft 166kts
29-Jan-19 10:39 34.194048 -119.237956 298 5998ft 166kts
29-Jan-19 10:40 34.214846 -119.287728 298 5996ft 165kts
29-Jan-19 10:41 34.234377 -119.334524 298 5659ft 143kts
29-Jan-19 10:42 34.251972 -119.376731 298 5005ft 138kts
29-Jan-19 10:43 34.269409 -119.418625 298 4531ft 146kts
29-Jan-19 10:44 34.288573 -119.464676 297 4461ft 160kts
29-Jan-19 10:45 34.309008 -119.514231 294 3983ft 157kts
29-Jan-19 10:46 34.326226 -119.561806 292 3999ft 157kts
29-Jan-19 10:47 34.343906 -119.611103 292 3998ft 160kts
29-Jan-19 10:48 34.361258 -119.659513 290 3657ft 141kts
29-Jan-19 10:49 34.375904 -119.700577 290 2842ft 124kts
29-Jan-19 10:50 34.391871 -119.744880 291 2987ft 159kts
29-Jan-19 10:51 34.385472 -119.790955 206 2273ft 139kts
29-Jan-19 10:52 34.351998 -119.812699 262 1524ft 159kts
29-Jan-19 10:53 34.388813 -119.831642 358 1373ft 173kts
29-Jan-19 10:54 34.427407 -119.840478 344 387ft 127kts
29-Jan-19 10:55 34.442461 -119.860205 188 1306ft 123kts
29-Jan-19 10:56 34.439319 -119.821738 101 552ft 112kts
29-Jan-19 10:57 34.427904 -119.835473 265 33ft 89kts
29-Jan-19 10:58 34.428348 -119.845786 64 17ft 8kts
29-Jan-19 11:00 34.428453 -119.845532 62 17ft 3kts
29-Jan-19 11:01 34.429367 -119.845034 331 17ft 0kts
29-Jan-19 11:04 34.429367 -119.845034 331 17ft 0kts
29-Jan-19 11:05 34.429367 -119.845034 331 17ft 0kts
29-Jan-19 11:06 34.429367 -119.845034 331 17ft 0kts
29-Jan-19 11:07 34.429367 -119.845034 331 17ft 0kts
29-Jan-19 11:08 34.429367 -119.845034 331 17ft 0kts
29-Jan-19 11:09 34.432576 -119.835062 71 16ft 5kts
29-Jan-19 11:10 34.432615 -119.834915 72 16ft 0kts
29-Jan-19 11:11 34.432615 -119.834915 72 16ft 0kts
29-Jan-19 11:12 34.432615 -119.834915 72 16ft 0kts
29-Jan-19 11:13 34.432615 -119.834915 72 16ft 0kts

Navigation Log

Ident Type
Flight plan parsing failed, navigation log unavailable